Time;durP1;ratioP1;P1;durP2;ratioP2;P2;SDS_P1;SDS_P2;PMS_P1;PMS_P2;Temp;Humidity;BMP_temperature;BMP_pressure;BME280_temperature;BME280_humidity;BME280_pressure;Samples;Min_cycle;Max_cycle;Signal;HPM_P1;HPM_P2
2024/04/12 00:01:16;;;;;;;10.30;3.00;;;;;;;13.60;48.56;102242.48;111587;1209;100382;-71
2024/04/12 00:03:42;;;;;;;4.60;2.00;;;;;;;13.58;48.62;102239.64;111579;1211;99711;-71
2024/04/12 00:06:15;;;;;;;5.20;2.60;;;;;;;13.55;48.61;102241.20;111492;1210;138182;-71
2024/04/12 00:08:48;;;;;;;6.00;2.00;;;;;;;13.54;48.77;102237.64;111632;1211;100305;-71
2024/04/12 00:11:20;;;;;;;6.50;2.60;;;;;;;13.53;48.85;102241.05;111479;1209;139527;-72
2024/04/12 00:13:48;;;;;;;8.30;2.30;;;;;;;13.53;49.00;102239.82;111634;1210;112799;-71
2024/04/12 00:16:17;;;;;;;7.80;2.80;;;;;;;13.52;49.07;102240.73;111468;1209;138558;-71
2024/04/12 00:18:46;;;;;;;7.80;2.90;;;;;;;13.52;49.14;102239.48;111633;1209;105417;-71
2024/04/12 00:21:12;;;;;;;8.20;2.50;;;;;;;13.50;49.17;102237.73;111567;1209;102018;-72
2024/04/12 00:23:41;;;;;;;5.90;2.10;;;;;;;13.49;49.25;102232.22;111531;1205;138977;-71
2024/04/12 00:26:07;;;;;;;3.90;2.40;;;;;;;13.46;49.27;102234.98;111637;1208;113692;-71
2024/04/12 00:28:34;;;;;;;5.50;2.50;;;;;;;13.44;49.46;102237.02;111539;1218;138834;-71
2024/04/12 00:31:01;;;;;;;5.10;2.30;;;;;;;13.41;49.56;102233.54;111575;1211;100283;-71
2024/04/12 00:33:34;;;;;;;7.50;2.50;;;;;;;13.37;49.56;102227.39;111595;1206;101777;-71
2024/04/12 00:36:07;;;;;;;7.80;2.50;;;;;;;13.37;49.76;102222.69;111560;1209;138869;-71
2024/04/12 00:38:37;;;;;;;4.30;2.40;;;;;;;13.40;49.88;102219.76;111617;1215;113755;-71
2024/04/12 00:41:11;;;;;;;6.40;2.30;;;;;;;13.38;49.83;102221.05;111493;1206;138615;-71
2024/04/12 00:43:48;;;;;;;10.70;3.10;;;;;;;13.39;49.89;102218.32;111557;1206;107459;-71
2024/04/12 00:46:19;;;;;;;9.30;2.30;;;;;;;13.39;50.00;102218.34;111426;1209;140094;-71
2024/04/12 00:48:46;;;;;;;10.60;2.40;;;;;;;13.37;50.01;102214.61;111583;1209;100431;-71
2024/04/12 00:51:17;;;;;;;8.10;2.80;;;;;;;13.37;50.20;102219.30;111590;1205;100299;-71
2024/04/12 00:53:47;;;;;;;5.40;2.40;;;;;;;13.35;50.21;102215.21;111499;1211;138360;-71
2024/04/12 00:56:14;;;;;;;6.50;2.40;;;;;;;13.36;50.31;102217.88;111559;1210;107615;-71
2024/04/12 00:58:44;;;;;;;6.60;2.40;;;;;;;13.37;50.35;102214.45;111488;1209;139217;-71
2024/04/12 01:01:15;;;;;;;9.30;2.70;;;;;;;13.36;50.47;102210.18;111561;1209;99150;-71
2024/04/12 01:03:45;;;;;;;5.60;2.60;;;;;;;13.38;50.48;102206.16;111619;1205;113773;-71
2024/04/12 01:06:32;;;;;;;5.80;2.30;;;;;;;13.40;50.57;102213.29;111513;1209;139266;-71
2024/04/12 01:09:13;;;;;;;5.70;2.30;;;;;;;13.37;50.67;102211.40;111583;1209;105532;-71
2024/04/12 01:11:39;;;;;;;5.80;2.70;;;;;;;13.32;50.73;102207.40;111505;1205;141804;-71
2024/04/12 01:14:11;;;;;;;6.70;2.70;;;;;;;13.29;50.81;102205.67;111646;1205;100311;-71
2024/04/12 01:16:38;;;;;;;5.70;2.20;;;;;;;13.25;50.93;102207.60;111534;1206;138871;-71
2024/04/12 01:19:05;;;;;;;6.40;2.40;;;;;;;13.25;51.05;102210.83;111625;1211;100317;-71
2024/04/12 01:21:31;;;;;;;8.60;2.70;;;;;;;13.26;51.02;102204.16;111432;1205;100396;-71
2024/04/12 01:23:57;;;;;;;5.90;2.30;;;;;;;13.25;51.09;102203.65;111530;1210;138868;-71
2024/04/12 01:26:27;;;;;;;4.40;1.90;;;;;;;13.21;51.13;102210.77;111705;1205;100888;-71
2024/04/12 01:28:56;;;;;;;7.60;3.00;;;;;;;13.19;51.28;102211.36;111560;1209;138595;-71
2024/04/12 01:31:21;;;;;;;5.80;2.20;;;;;;;13.17;51.34;102209.45;111599;1208;107382;-71
2024/04/12 01:33:48;;;;;;;6.70;2.50;;;;;;;13.16;51.42;102212.17;111633;1209;100428;-71
2024/04/12 01:36:17;;;;;;;8.00;2.10;;;;;;;13.15;51.37;102216.13;111494;1210;138556;-71
2024/04/12 01:38:45;;;;;;;4.40;2.40;;;;;;;13.15;51.64;102223.51;111679;1205;100378;-71
2024/04/12 01:41:10;;;;;;;4.60;1.90;;;;;;;13.14;51.54;102216.70;111547;1209;138857;-71
2024/04/12 01:43:36;;;;;;;5.80;2.30;;;;;;;13.10;51.61;102217.52;111486;1206;101970;-70
2024/04/12 01:46:07;;;;;;;7.80;2.80;;;;;;;13.07;51.67;102216.37;111660;1210;100766;-70
2024/04/12 01:48:34;;;;;;;6.00;2.20;;;;;;;13.07;51.74;102213.14;111650;1206;114670;-70
2024/04/12 01:51:03;;;;;;;6.40;2.60;;;;;;;13.05;51.82;102212.13;111636;1211;100817;-70
2024/04/12 01:53:37;;;;;;;6.50;2.30;;;;;;;13.03;51.93;102215.41;111505;1209;138715;-70
2024/04/12 01:56:04;;;;;;;6.30;1.90;;;;;;;13.02;51.90;102212.20;111596;1206;100396;-70
2024/04/12 01:58:29;;;;;;;5.00;2.40;;;;;;;13.04;52.06;102209.10;111586;1209;140109;-70
2024/04/12 02:00:54;;;;;;;4.80;2.00;;;;;;;13.05;52.06;102209.97;111633;1205;101708;-70
2024/04/12 02:03:21;;;;;;;8.50;2.70;;;;;;;13.06;52.18;102210.30;111574;1211;102027;-70
2024/04/12 02:05:49;;;;;;;8.50;2.60;;;;;;;13.03;52.21;102205.17;111320;1211;138689;-70
2024/04/12 02:08:17;;;;;;;9.30;2.40;;;;;;;13.02;52.25;102202.68;111615;1209;100432;-70
2024/04/12 02:10:44;;;;;;;8.90;3.10;;;;;;;12.99;52.33;102198.67;111486;1206;139007;-71
2024/04/12 02:13:16;;;;;;;4.20;2.90;;;;;;;12.95;52.30;102193.05;111576;1206;102432;-71
2024/04/12 02:15:46;;;;;;;7.40;2.80;;;;;;;12.96;52.41;102194.11;111581;1205;107393;-71
2024/04/12 02:18:13;;;;;;;5.40;2.10;;;;;;;12.95;52.46;102192.50;111419;1205;138519;-71
2024/04/12 02:20:40;;;;;;;4.70;2.50;;;;;;;12.95;52.53;102191.80;111564;1209;100486;-72
2024/04/12 02:23:09;;;;;;;3.90;2.20;;;;;;;12.94;52.66;102188.05;111070;1206;138398;-72
2024/04/12 02:25:39;;;;;;;7.70;2.60;;;;;;;12.93;52.66;102180.55;111245;1211;104078;-72
2024/04/12 02:28:13;;;;;;;10.20;3.00;;;;;;;12.91;52.74;102178.08;111168;1206;107361;-72
2024/04/12 02:30:44;;;;;;;8.70;2.80;;;;;;;12.88;52.78;102179.43;111210;1211;100375;-72
2024/04/12 02:33:17;;;;;;;4.70;2.40;;;;;;;12.86;52.86;102170.15;111095;1206;100606;-72
2024/04/12 02:35:44;;;;;;;8.80;3.30;;;;;;;12.83;52.90;102170.24;111047;1206;138641;-72
2024/04/12 02:38:20;;;;;;;7.30;2.60;;;;;;;12.82;52.97;102170.13;111200;1221;100437;-72
2024/04/12 02:40:47;;;;;;;5.40;2.10;;;;;;;12.80;53.01;102163.52;111153;1209;140624;-72
2024/04/12 02:43:15;;;;;;;6.20;2.30;;;;;;;12.77;53.19;102161.81;111096;1210;100271;-72
2024/04/12 02:45:53;;;;;;;8.00;3.00;;;;;;;12.75;53.12;102154.33;111169;1208;100427;-72
2024/04/12 02:48:22;;;;;;;6.30;2.70;;;;;;;12.75;53.26;102151.66;110963;1211;140749;-72
2024/04/12 02:50:53;;;;;;;8.60;2.70;;;;;;;12.74;53.36;102152.23;111197;1219;100426;-72
2024/04/12 02:53:23;;;;;;;6.10;2.50;;;;;;;12.74;53.45;102154.20;110966;1210;138412;-72
2024/04/12 02:56:09;;;;;;;3.40;2.50;;;;;;;12.74;53.59;102158.14;111131;1209;100380;-72
2024/04/12 02:58:39;;;;;;;7.70;2.90;;;;;;;12.75;53.64;102165.11;110997;1210;138737;-72
2024/04/12 03:01:16;;;;;;;7.40;3.00;;;;;;;12.75;53.65;102160.44;111134;1211;113665;-72
2024/04/12 03:03:48;;;;;;;8.70;3.30;;;;;;;12.77;53.79;102164.51;111120;1209;100404;-72
2024/04/12 03:06:17;;;;;;;7.50;3.60;;;;;;;12.78;53.86;102167.16;111005;1206;139994;-72
2024/04/12 03:08:47;;;;;;;7.20;3.20;;;;;;;12.80;53.89;102171.05;111154;1211;100493;-72
2024/04/12 03:11:21;;;;;;;11.70;3.50;;;;;;;12.82;54.00;102167.42;111005;1221;139804;-72
2024/04/12 03:13:50;;;;;;;5.90;3.20;;;;;;;12.82;54.09;102167.06;111147;1206;114456;-72
2024/04/12 03:16:16;;;;;;;10.00;3.70;;;;;;;12.82;54.15;102162.75;111067;1208;138570;-72
2024/04/12 03:18:46;;;;;;;8.90;3.80;;;;;;;12.83;54.15;102170.42;111126;1211;100293;-72
2024/04/12 03:21:21;;;;;;;16.20;3.90;;;;;;;12.84;54.27;102172.20;111186;1220;100382;-72
2024/04/12 03:23:48;;;;;;;6.80;3.30;;;;;;;12.85;54.25;102169.48;111121;1206;139090;-72
2024/04/12 03:26:15;;;;;;;8.10;3.30;;;;;;;12.84;54.35;102173.80;111220;1209;101821;-72
2024/04/12 03:28:41;;;;;;;11.00;3.50;;;;;;;12.83;54.42;102172.57;111040;1210;138991;-72
2024/04/12 03:31:08;;;;;;;10.00;3.60;;;;;;;12.83;54.45;102176.70;111115;1211;100282;-72
2024/04/12 03:33:42;;;;;;;8.10;3.30;;;;;;;12.84;54.52;102182.44;111248;1211;100325;-72
2024/04/12 03:36:26;;;;;;;10.80;3.60;;;;;;;12.82;54.50;102177.11;111040;1209;138937;-73
2024/04/12 03:39:24;;;;;;;5.80;3.30;;;;;;;12.80;54.53;102182.00;111158;1206;100275;-72
2024/04/12 03:41:38;;;;;;;12.60;3.50;;;;;;;12.80;54.71;102179.14;111046;1210;139462;-72
2024/04/12 03:44:08;;;;;;;6.30;3.50;;;;;;;12.78;54.64;102175.77;111204;1206;100458;-72
2024/04/12 03:46:34;;;;;;;5.80;3.40;;;;;;;12.78;54.82;102180.08;110898;1219;138802;-72
2024/04/12 03:49:01;;;;;;;7.60;3.20;;;;;;;12.79;54.93;102178.81;111157;1212;101410;-72
2024/04/12 03:51:27;;;;;;;11.40;3.50;;;;;;;12.78;54.99;102178.45;111154;1208;100401;-72
2024/04/12 03:54:10;;;;;;;12.30;3.90;;;;;;;12.77;54.97;102178.50;111129;1219;138680;-72
2024/04/12 03:56:36;;;;;;;11.30;3.10;;;;;;;12.76;55.08;102176.21;111138;1206;100645;-72
2024/04/12 03:59:02;;;;;;;6.40;3.10;;;;;;;12.77;55.17;102179.05;111033;1219;138609;-72
2024/04/12 04:01:31;;;;;;;6.90;3.20;;;;;;;12.78;55.22;102180.63;111157;1207;100341;-72
2024/04/12 04:04:08;;;;;;;10.70;3.40;;;;;;;12.81;55.27;102179.11;111157;1209;100403;-72
2024/04/12 04:06:36;;;;;;;7.20;3.30;;;;;;;12.83;55.30;102179.59;111019;1212;142028;-72
2024/04/12 04:09:05;;;;;;;15.70;3.40;;;;;;;12.84;55.39;102185.85;111116;1208;101120;-72
2024/04/12 04:11:31;;;;;;;8.40;3.10;;;;;;;12.83;55.39;102191.08;111147;1206;139975;-72
2024/04/12 04:13:56;;;;;;;11.80;4.00;;;;;;;12.81;55.43;102197.77;111171;1211;100410;-72
2024/04/12 04:16:22;;;;;;;8.90;3.60;;;;;;;12.80;55.44;102196.00;111068;1213;138824;-71
2024/04/12 04:18:49;;;;;;;11.20;4.00;;;;;;;12.77;55.49;102194.11;111134;1206;100303;-72
2024/04/12 04:21:15;;;;;;;16.20;3.60;;;;;;;12.76;55.52;102196.46;111099;1215;100376;-72
2024/04/12 04:23:42;;;;;;;8.30;3.40;;;;;;;12.77;55.73;102193.39;111097;1205;138889;-72
2024/04/12 04:26:08;;;;;;;10.80;2.90;;;;;;;12.77;55.57;102199.48;111144;1212;100312;-72
2024/04/12 04:28:37;;;;;;;16.90;3.30;;;;;;;12.72;55.69;102197.64;111040;1211;139068;-72
2024/04/12 04:31:06;;;;;;;10.50;3.10;;;;;;;12.73;55.84;102196.91;111066;1211;114186;-72
2024/04/12 04:33:35;;;;;;;9.40;3.60;;;;;;;12.72;55.82;102197.65;111133;1218;101791;-72
2024/04/12 04:36:09;;;;;;;9.50;3.20;;;;;;;12.71;55.86;102196.25;111094;1212;139161;-72
2024/04/12 04:38:41;;;;;;;9.00;3.50;;;;;;;12.70;55.98;102196.98;111108;1215;100423;-72
2024/04/12 04:41:07;;;;;;;12.20;3.80;;;;;;;12.71;55.96;102193.91;111095;1206;139513;-72
2024/04/12 04:43:36;;;;;;;14.70;3.40;;;;;;;12.71;56.04;102194.80;110958;1211;100412;-72
2024/04/12 04:46:26;;;;;;;9.00;4.10;;;;;;;12.72;56.09;102195.87;111220;1216;100328;-72
2024/04/12 04:48:55;;;;;;;8.70;3.40;;;;;;;12.71;56.23;102195.33;111093;1209;107900;-72
2024/04/12 04:51:22;;;;;;;8.40;3.50;;;;;;;12.72;56.23;102197.65;111156;1211;100404;-73
2024/04/12 04:53:52;;;;;;;10.60;3.30;;;;;;;12.74;56.38;102197.05;110970;1211;139502;-73
2024/04/12 04:56:24;;;;;;;7.80;3.10;;;;;;;12.76;56.38;102197.37;111074;1211;114234;-73
2024/04/12 04:58:52;;;;;;;12.00;3.90;;;;;;;12.77;56.48;102200.02;111023;1209;139584;-73
2024/04/12 05:01:17;;;;;;;12.10;2.90;;;;;;;12.76;56.54;102200.58;110973;1211;108536;-72
2024/04/12 05:03:43;;;;;;;9.40;3.20;;;;;;;12.79;56.74;102206.26;111025;1221;100292;-71
2024/04/12 05:06:08;;;;;;;9.90;3.40;;;;;;;12.82;56.83;102206.88;110978;1215;139438;-72
2024/04/12 05:08:35;;;;;;;11.50;3.30;;;;;;;12.83;56.84;102204.33;111033;1207;100452;-71
2024/04/12 05:11:06;;;;;;;9.60;3.70;;;;;;;12.87;56.87;102201.73;110939;1206;139613;-72
2024/04/12 05:13:39;;;;;;;5.90;2.50;;;;;;;12.92;56.99;102196.90;111062;1211;100401;-71
2024/04/12 05:16:12;;;;;;;7.10;3.40;;;;;;;12.97;57.04;102195.86;111065;1210;100741;-70
2024/04/12 05:18:38;;;;;;;10.50;3.90;;;;;;;13.03;57.15;102199.27;110991;1211;138273;-67
2024/04/12 05:21:03;;;;;;;7.20;2.70;;;;;;;13.08;57.13;102201.10;110987;1211;100717;-70
2024/04/12 05:23:29;;;;;;;11.80;3.60;;;;;;;13.11;57.19;102202.78;111035;1206;138462;-72
2024/04/12 05:25:55;;;;;;;8.20;3.40;;;;;;;13.14;57.20;102204.52;111113;1206;100387;-74
2024/04/12 05:28:20;;;;;;;15.20;3.70;;;;;;;13.16;57.34;102204.63;110917;1206;139464;-73
2024/04/12 05:30:49;;;;;;;7.40;3.40;;;;;;;13.19;57.31;102212.09;110991;1209;100433;-74
2024/04/12 05:33:16;;;;;;;7.30;3.10;;;;;;;13.21;57.37;102216.00;111018;1211;100373;-74
2024/04/12 05:35:42;;;;;;;8.80;3.50;;;;;;;13.20;57.39;102218.52;110981;1212;138463;-74
2024/04/12 05:38:08;;;;;;;13.80;3.50;;;;;;;13.20;57.47;102221.04;111074;1215;100298;-74
2024/04/12 05:40:51;;;;;;;15.30;3.80;;;;;;;13.21;57.48;102227.48;111045;1212;140632;-74
2024/04/12 05:43:17;;;;;;;15.90;4.10;;;;;;;13.19;57.51;102228.27;110989;1212;100298;-74
2024/04/12 05:45:47;;;;;;;12.90;4.10;;;;;;;13.17;57.67;102225.08;110991;1211;100811;-74
2024/04/12 05:48:13;;;;;;;12.40;4.10;;;;;;;13.16;57.69;102225.09;110978;1219;138570;-74
2024/04/12 05:50:48;;;;;;;13.10;4.30;;;;;;;13.14;57.66;102220.83;111094;1212;100602;-74
2024/04/12 05:53:14;;;;;;;13.20;3.80;;;;;;;13.12;57.91;102216.93;110893;1212;138770;-74
2024/04/12 05:55:52;;;;;;;20.00;3.50;;;;;;;13.13;57.96;102224.08;111187;1212;100351;-74
2024/04/12 05:58:19;;;;;;;16.90;4.50;;;;;;;13.13;57.98;102222.84;110890;1206;101957;-74
2024/04/12 06:00:48;;;;;;;10.70;3.30;;;;;;;13.13;58.08;102219.95;111268;1210;100380;-74
2024/04/12 06:03:14;;;;;;;8.70;3.30;;;;;;;13.16;58.19;102222.40;111118;1210;101058;-74
2024/04/12 06:05:46;;;;;;;6.60;2.80;;;;;;;13.16;58.17;102218.10;110951;1218;140124;-74
2024/04/12 06:08:14;;;;;;;13.10;3.90;;;;;;;13.19;58.38;102219.27;111060;1206;100592;-74
2024/04/12 06:10:44;;;;;;;17.10;3.10;;;;;;;13.21;58.56;102216.52;111239;1210;139845;-70
2024/04/12 06:13:09;;;;;;;10.20;3.20;;;;;;;13.25;58.61;102217.48;111496;1212;113821;-69
2024/04/12 06:15:36;;;;;;;10.80;3.30;;;;;;;13.31;58.78;102219.98;111428;1212;100482;-70
2024/04/12 06:18:05;;;;;;;11.00;3.30;;;;;;;13.36;58.84;102216.44;111446;1212;139293;-70
2024/04/12 06:20:31;;;;;;;14.00;4.10;;;;;;;13.41;58.82;102219.55;111579;1210;100447;-70
2024/04/12 06:22:59;;;;;;;17.80;3.40;;;;;;;13.45;59.06;102214.73;111457;1206;139163;-71
2024/04/12 06:25:25;;;;;;;6.40;3.40;;;;;;;13.50;59.06;102214.94;111543;1212;100283;-71
2024/04/12 06:27:52;;;;;;;11.80;3.30;;;;;;;13.53;59.10;102215.59;111675;1212;100750;-71
2024/04/12 06:30:24;;;;;;;13.30;3.90;;;;;;;13.53;59.18;102217.17;111391;1206;138775;-71
2024/04/12 06:32:50;;;;;;;13.80;4.20;;;;;;;13.57;59.28;102215.80;111619;1207;100511;-71
2024/04/12 06:35:20;;;;;;;16.20;3.40;;;;;;;13.60;59.33;102212.83;111454;1212;138534;-70
2024/04/12 06:37:51;;;;;;;14.10;3.40;;;;;;;13.63;59.42;102216.14;111591;1206;100382;-70
2024/04/12 06:40:18;;;;;;;12.40;3.70;;;;;;;13.66;59.47;102216.60;111603;1219;107280;-71
2024/04/12 06:42:43;;;;;;;8.80;3.20;;;;;;;13.65;59.53;102220.05;111489;1212;138476;-68
2024/04/12 06:45:15;;;;;;;10.20;3.40;;;;;;;13.64;59.61;102216.83;111603;1212;100296;-66
2024/04/12 06:47:43;;;;;;;18.00;3.70;;;;;;;13.64;59.72;102216.67;111441;1212;139761;-69
2024/04/12 06:50:08;;;;;;;15.10;3.20;;;;;;;13.66;59.83;102213.19;111536;1207;105879;-69
2024/04/12 06:52:35;;;;;;;17.80;3.40;;;;;;;13.71;60.00;102212.51;111469;1210;139448;-69
2024/04/12 06:55:01;;;;;;;16.00;3.80;;;;;;;13.74;60.02;102217.77;111589;1209;100423;-69
2024/04/12 06:57:27;;;;;;;10.10;3.00;;;;;;;13.78;60.15;102218.36;111608;1206;100314;-70
2024/04/12 06:59:53;;;;;;;13.30;3.30;;;;;;;13.83;60.22;102212.84;111496;1207;140678;-69
2024/04/12 07:02:26;;;;;;;9.40;3.50;;;;;;;13.88;60.35;102214.44;111485;1206;100450;-72
2024/04/12 07:04:52;;;;;;;10.40;3.40;;;;;;;13.93;60.36;102214.30;111434;1212;139541;-70
2024/04/12 07:07:22;;;;;;;10.20;4.10;;;;;;;13.95;60.48;102210.63;111500;1212;100319;-68
2024/04/12 07:09:49;;;;;;;10.30;3.30;;;;;;;14.01;60.64;102213.16;111643;1206;100375;-68
2024/04/12 07:12:14;;;;;;;11.90;3.40;;;;;;;14.06;60.63;102216.39;111427;1206;139970;-68
2024/04/12 07:14:41;;;;;;;10.40;2.90;;;;;;;14.10;60.58;102213.40;111612;1212;100314;-67
2024/04/12 07:17:26;;;;;;;14.20;3.40;;;;;;;14.12;60.74;102221.60;111432;1210;139346;-68
2024/04/12 07:19:53;;;;;;;24.10;3.90;;;;;;;14.17;60.84;102224.14;111582;1212;100408;-68
2024/04/12 07:22:18;;;;;;;6.70;3.00;;;;;;;14.18;60.84;102219.21;111544;1206;100676;-68
2024/04/12 07:24:47;;;;;;;7.00;3.20;;;;;;;14.21;60.95;102223.08;111388;1212;139805;-68
2024/04/12 07:27:16;;;;;;;17.60;3.80;;;;;;;14.24;60.97;102218.66;111534;1206;100609;-68
2024/04/12 07:29:44;;;;;;;14.50;3.10;;;;;;;14.26;60.95;102223.26;111511;1206;138539;-69
2024/04/12 07:32:13;;;;;;;11.40;3.30;;;;;;;14.27;61.11;102221.61;111469;1206;102330;-70
2024/04/12 07:34:49;;;;;;;11.00;3.60;;;;;;;14.30;61.13;102220.44;111348;1206;139702;-69
2024/04/12 07:37:36;;;;;;;8.20;3.50;;;;;;;14.32;61.14;102216.77;111423;1211;100309;-70
2024/04/12 07:42:47;;;;;;;7.10;3.30;;;;;;;14.43;61.37;102217.15;111471;1219;115880;-68
2024/04/12 07:45:20;;;;;;;10.00;3.50;;;;;;;14.47;61.44;102222.59;111221;1211;100290;-65
2024/04/12 07:48:36;;;;;;;14.80;3.90;;;;;;;14.50;61.41;102222.65;110908;1212;139503;-65
2024/04/12 07:50:33;;;;;;;7.50;3.70;;;;;;;14.52;61.52;102220.45;111280;1207;100311;-68
2024/04/12 07:53:21;;;;;;;24.10;11.00;;;;;;;14.57;61.59;102221.52;111466;1206;139373;-68
2024/04/12 07:56:14;;;;;;;11.10;4.20;;;;;;;14.64;61.65;102223.10;111602;1212;113824;-68
2024/04/12 07:58:42;;;;;;;13.20;3.70;;;;;;;14.69;61.67;102221.47;111483;1211;140282;-67
2024/04/12 08:01:25;;;;;;;15.40;4.30;;;;;;;14.74;61.62;102222.39;111514;1211;107496;-68
2024/04/12 08:03:56;;;;;;;10.20;4.00;;;;;;;14.79;61.65;102223.83;111578;1206;100316;-68
2024/04/12 08:06:55;;;;;;;17.20;4.30;;;;;;;14.83;61.76;102220.77;111442;1206;139881;-68
2024/04/12 08:09:21;;;;;;;8.20;3.90;;;;;;;14.89;61.91;102214.06;111529;1210;113777;-67
2024/04/12 08:11:51;;;;;;;11.80;3.90;;;;;;;14.98;61.97;102214.86;111535;1206;139196;-67
2024/04/12 08:14:20;;;;;;;17.50;3.90;;;;;;;15.05;61.91;102211.90;111612;1212;107643;-67
2024/04/12 08:16:52;;;;;;;8.50;3.60;;;;;;;15.13;61.98;102214.98;111501;1210;139727;-67
2024/04/12 08:19:55;;;;;;;9.40;3.20;;;;;;;15.22;61.92;102208.89;111540;1205;100875;-67
2024/04/12 08:22:17;;;;;;;12.50;3.90;;;;;;;15.25;61.86;102207.49;111520;1206;112657;-67
2024/04/12 08:24:44;;;;;;;5.20;3.30;;;;;;;15.29;61.88;102207.58;111516;1212;139146;-67
2024/04/12 08:27:09;;;;;;;8.20;3.50;;;;;;;15.36;61.92;102203.86;111497;1209;100417;-67
2024/04/12 08:29:34;;;;;;;8.70;3.40;;;;;;;15.41;61.89;102208.70;111540;1212;138624;-67
2024/04/12 08:32:11;;;;;;;9.20;4.20;;;;;;;15.42;61.79;102210.83;111611;1206;100568;-66
2024/04/12 08:34:48;;;;;;;8.70;4.30;;;;;;;15.45;61.85;102206.58;111109;1211;138912;-66
2024/04/12 08:37:14;;;;;;;12.20;3.10;;;;;;;15.45;61.81;102215.40;110989;1209;107810;-66
2024/04/12 08:39:43;;;;;;;10.50;3.40;;;;;;;15.40;61.72;102208.73;111256;1210;100422;-68
2024/04/12 08:42:11;;;;;;;9.20;3.10;;;;;;;15.39;61.82;102204.30;111445;1212;139267;-68
2024/04/12 08:44:39;;;;;;;5.30;2.70;;;;;;;15.46;62.02;102206.55;111600;1210;113719;-66
2024/04/12 08:49:51;;;;;;;15.20;3.80;;;;;;;15.59;61.93;102212.55;111563;1209;109428;-66
2024/04/12 08:52:30;;;;;;;9.80;2.80;;;;;;;15.62;62.14;102212.22;111531;1206;100386;-67
2024/04/12 08:54:59;;;;;;;7.30;3.30;;;;;;;15.68;62.01;102207.66;111573;1212;100361;-68
2024/04/12 08:57:25;;;;;;;9.90;3.30;;;;;;;15.75;62.09;102205.73;111556;1206;113767;-67
2024/04/12 08:59:51;;;;;;;7.90;3.30;;;;;;;15.83;62.19;102196.95;111581;1206;139565;-67
2024/04/12 09:02:20;;;;;;;7.30;3.00;;;;;;;15.91;62.25;102204.56;111620;1209;101865;-68
2024/04/12 09:04:46;;;;;;;7.70;2.90;;;;;;;15.95;62.06;102208.91;111487;1206;138867;-67
2024/04/12 09:07:12;;;;;;;5.30;3.10;;;;;;;15.95;62.01;102204.38;111550;1208;100282;-67
2024/04/12 09:09:38;;;;;;;10.70;3.20;;;;;;;15.90;61.99;102198.11;111659;1212;100591;-67
2024/04/12 09:12:12;;;;;;;9.10;3.30;;;;;;;15.87;61.99;102200.73;111477;1206;139771;-68
2024/04/12 09:14:40;;;;;;;13.60;3.40;;;;;;;15.89;62.14;102191.99;111610;1212;100606;-68
2024/04/12 09:17:14;;;;;;;10.40;3.50;;;;;;;16.00;62.22;102186.72;111498;1207;138844;-67
2024/04/12 09:19:50;;;;;;;5.10;3.40;;;;;;;16.11;62.32;102190.02;111600;1219;101487;-67
2024/04/12 09:22:17;;;;;;;5.50;2.50;;;;;;;16.17;62.26;102194.46;111501;1210;107408;-69
2024/04/12 09:24:48;;;;;;;7.10;3.20;;;;;;;16.17;61.93;102192.84;111358;1212;138716;-69
2024/04/12 09:27:22;;;;;;;7.30;2.70;;;;;;;16.12;62.03;102193.05;111601;1206;100407;-68
2024/04/12 09:29:58;;;;;;;3.50;2.80;;;;;;;16.12;62.01;102191.42;111514;1212;140235;-67
2024/04/12 09:35:12;;;;;;;4.30;2.70;;;;;;;16.14;61.95;102195.31;111466;1209;139278;-67
2024/04/12 09:37:42;;;;;;;11.20;3.40;;;;;;;16.18;62.12;102191.70;111612;1206;99150;-67
2024/04/12 09:42:50;;;;;;;7.30;3.10;;;;;;;16.30;62.01;102187.92;111052;1210;139348;-67
2024/04/12 09:45:22;;;;;;;7.80;3.30;;;;;;;16.29;61.99;102188.16;111158;1212;100376;-67
2024/04/12 10:38:32;;;;;;;5.60;2.30;;;;;;;16.48;62.40;102147.67;110951;1209;114371;-67
2024/04/12 10:40:58;;;;;;;5.90;2.30;;;;;;;16.54;62.09;102144.84;111246;1206;138895;-67
2024/04/12 10:43:25;;;;;;;5.50;2.90;;;;;;;16.60;62.40;102145.84;111211;1212;100335;-67
2024/04/12 10:45:52;;;;;;;5.30;2.60;;;;;;;16.72;62.19;102141.73;111232;1206;100415;-67
2024/04/12 10:48:18;;;;;;;6.20;3.00;;;;;;;16.81;62.29;102137.91;111003;1209;139466;-67
2024/04/12 10:50:49;;;;;;;6.70;2.90;;;;;;;16.85;62.20;102136.80;111258;1206;100620;-67
2024/04/12 10:53:17;;;;;;;9.80;3.30;;;;;;;16.91;62.19;102133.30;111004;1209;138794;-67
2024/04/12 10:55:44;;;;;;;6.30;2.90;;;;;;;16.95;62.06;102133.83;111287;1206;100401;-67
2024/04/12 10:58:14;;;;;;;3.80;2.20;;;;;;;16.91;61.74;102130.75;111240;1206;100830;-67
2024/04/12 11:00:49;;;;;;;5.30;2.10;;;;;;;16.87;61.80;102125.86;111043;1209;139775;-67
2024/04/12 11:03:17;;;;;;;4.30;2.10;;;;;;;16.82;61.59;102121.95;111156;1212;100393;-67
2024/04/12 11:05:48;;;;;;;5.80;2.10;;;;;;;16.75;61.58;102113.98;111394;1206;138584;-67
2024/04/12 11:08:14;;;;;;;;;;;;;;;16.70;61.63;102110.23;111494;1209;100300;-67
2024/04/12 11:10:40;;;;;;;2.60;1.80;;;;;;;16.66;61.54;102114.03;111388;1206;125260;-67
2024/04/12 11:13:08;;;;;;;2.50;1.50;;;;;;;16.57;61.47;102109.55;111206;1210;100404;-67
2024/04/12 11:32:00;;;;;;;5.10;2.40;;;;;;;16.55;61.50;102092.49;110989;1210;102843;-66
2024/04/12 11:34:30;;;;;;;6.60;2.90;;;;;;;16.55;61.47;102095.54;111123;1206;100718;-67
2024/04/12 11:36:58;;;;;;;5.90;3.10;;;;;;;16.55;61.45;102093.36;110895;1206;138843;-66
2024/04/12 11:39:26;;;;;;;11.70;3.70;;;;;;;16.60;61.50;102096.44;110992;1212;100283;-67
2024/04/12 11:41:55;;;;;;;6.60;3.80;;;;;;;16.62;61.64;102097.79;110818;1209;140227;-66
2024/04/12 11:44:20;;;;;;;8.40;3.20;;;;;;;16.58;61.47;102098.12;110997;1206;101854;-66
2024/04/12 11:46:46;;;;;;;4.20;2.90;;;;;;;16.58;61.56;102097.41;110898;1216;139544;-67
2024/04/12 11:49:12;;;;;;;6.60;4.30;;;;;;;16.65;61.77;102089.35;111066;1206;100452;-66
2024/04/12 11:51:40;;;;;;;4.40;3.20;;;;;;;16.70;61.70;102086.25;111040;1219;107037;-66
2024/04/12 11:54:06;;;;;;;6.00;3.40;;;;;;;16.70;61.51;102084.96;111534;1206;139569;-66
2024/04/12 11:56:32;;;;;;;11.80;3.50;;;;;;;16.67;61.52;102075.36;111624;1206;100343;-66
2024/04/12 11:59:03;;;;;;;7.90;3.20;;;;;;;16.65;61.53;102064.08;111562;1206;138963;-66
2024/04/12 12:01:29;;;;;;;4.50;2.80;;;;;;;16.63;61.45;102058.73;111583;1209;107698;-66
2024/04/12 12:03:56;;;;;;;6.50;3.40;;;;;;;16.64;61.52;102058.89;111583;1205;100395;-66
2024/04/12 12:06:22;;;;;;;8.40;3.30;;;;;;;16.67;61.55;102057.33;111475;1209;140344;-66
2024/04/12 12:08:57;;;;;;;7.00;3.90;;;;;;;16.67;61.45;102070.50;111689;1209;100405;-66
2024/04/12 12:11:24;;;;;;;5.00;3.50;;;;;;;16.62;61.40;102064.92;111469;1209;138828;-67
2024/04/12 12:13:49;;;;;;;6.30;3.70;;;;;;;16.57;61.49;102064.96;111655;1209;99457;-65
2024/04/12 12:16:14;;;;;;;7.70;3.80;;;;;;;16.51;61.45;102062.52;111672;1206;100985;-66
2024/04/12 12:18:41;;;;;;;14.90;4.10;;;;;;;16.45;61.47;102057.04;111477;1209;139033;-66
2024/04/12 12:21:07;;;;;;;7.80;3.90;;;;;;;16.38;61.36;102058.96;111605;1209;100363;-67
2024/04/12 12:23:34;;;;;;;7.70;3.60;;;;;;;16.32;61.44;102047.70;111528;1206;138461;-66
2024/04/12 12:25:59;;;;;;;7.20;3.70;;;;;;;16.31;61.45;102043.77;111657;1209;99162;-66
2024/04/12 12:28:26;;;;;;;4.50;3.30;;;;;;;16.31;61.52;102047.59;111701;1206;100305;-66
2024/04/12 12:30:54;;;;;;;6.20;3.30;;;;;;;16.32;61.62;102037.79;111514;1205;139128;-66
2024/04/12 12:33:23;;;;;;;5.60;3.30;;;;;;;16.36;61.63;102037.06;111589;1209;100328;-67
2024/04/12 12:35:50;;;;;;;3.80;2.80;;;;;;;16.39;61.60;102030.23;111615;1206;139403;-68